sensor_id;sensor_type;location;lat;lon;timestamp;temperature;humidity
19966;DHT22;10144;50.874;4.762;2023-02-10T00:02:07;4.60;99.90
19966;DHT22;10144;50.874;4.762;2023-02-10T00:04:35;4.60;99.90
19966;DHT22;10144;50.874;4.762;2023-02-10T00:07:07;4.70;99.90
19966;DHT22;10144;50.874;4.762;2023-02-10T00:09:35;5.00;99.90
19966;DHT22;10144;50.874;4.762;2023-02-10T00:12:00;5.00;99.90
19966;DHT22;10144;50.874;4.762;2023-02-10T00:14:36;4.90;99.90
19966;DHT22;10144;50.874;4.762;2023-02-10T00:17:31;4.80;99.90
19966;DHT22;10144;50.874;4.762;2023-02-10T00:20:00;4.70;99.90
19966;DHT22;10144;50.874;4.762;2023-02-10T00:22:27;4.70;99.90
19966;DHT22;10144;50.874;4.762;2023-02-10T00:24:56;4.40;99.90
19966;DHT22;10144;50.874;4.762;2023-02-10T00:27:32;4.30;99.90
19966;DHT22;10144;50.874;4.762;2023-02-10T00:30:07;4.30;99.90
19966;DHT22;10144;50.874;4.762;2023-02-10T00:36:30;4.10;99.90
19966;DHT22;10144;50.874;4.762;2023-02-10T00:39:15;4.10;99.90
19966;DHT22;10144;50.874;4.762;2023-02-10T00:42:02;4.10;99.90
19966;DHT22;10144;50.874;4.762;2023-02-10T00:48:17;4.00;99.90
19966;DHT22;10144;50.874;4.762;2023-02-10T00:51:18;4.00;99.90
19966;DHT22;10144;50.874;4.762;2023-02-10T00:53:44;3.90;99.90
19966;DHT22;10144;50.874;4.762;2023-02-10T00:59:32;4.30;99.90
19966;DHT22;10144;50.874;4.762;2023-02-10T01:02:02;4.40;99.90
19966;DHT22;10144;50.874;4.762;2023-02-10T01:04:29;4.40;99.90
19966;DHT22;10144;50.874;4.762;2023-02-10T01:10:02;4.40;99.90
19966;DHT22;10144;50.874;4.762;2023-02-10T01:12:28;4.30;99.90
19966;DHT22;10144;50.874;4.762;2023-02-10T01:15:04;4.50;99.90
19966;DHT22;10144;50.874;4.762;2023-02-10T01:17:31;4.40;99.90
19966;DHT22;10144;50.874;4.762;2023-02-10T01:20:06;4.50;99.90
19966;DHT22;10144;50.874;4.762;2023-02-10T01:22:33;4.50;99.90
19966;DHT22;10144;50.874;4.762;2023-02-10T01:25:26;4.60;99.90
19966;DHT22;10144;50.874;4.762;2023-02-10T01:27:55;4.70;99.90
19966;DHT22;10144;50.874;4.762;2023-02-10T01:30:22;4.80;99.90
19966;DHT22;10144;50.874;4.762;2023-02-10T01:33:02;4.80;99.90
19966;DHT22;10144;50.874;4.762;2023-02-10T01:35:31;4.70;99.90
19966;DHT22;10144;50.874;4.762;2023-02-10T01:38:32;4.70;99.90
19966;DHT22;10144;50.874;4.762;2023-02-10T01:41:10;4.80;99.90
19966;DHT22;10144;50.874;4.762;2023-02-10T01:50:09;4.80;99.90
19966;DHT22;10144;50.874;4.762;2023-02-10T01:56:01;4.60;99.90
19966;DHT22;10144;50.874;4.762;2023-02-10T01:58:32;4.50;99.90
19966;DHT22;10144;50.874;4.762;2023-02-10T02:00:59;4.30;99.90
19966;DHT22;10144;50.874;4.762;2023-02-10T02:03:33;4.10;99.90
19966;DHT22;10144;50.874;4.762;2023-02-10T02:06:03;4.00;99.90
19966;DHT22;10144;50.874;4.762;2023-02-10T02:18:31;3.80;99.90
19966;DHT22;10144;50.874;4.762;2023-02-10T02:37:44;3.20;99.90
19966;DHT22;10144;50.874;4.762;2023-02-10T02:40:27;3.20;99.90
19966;DHT22;10144;50.874;4.762;2023-02-10T02:42:58;3.30;99.90
19966;DHT22;10144;50.874;4.762;2023-02-10T02:49:02;3.60;99.90
19966;DHT22;10144;50.874;4.762;2023-02-10T02:51:47;3.50;99.90
19966;DHT22;10144;50.874;4.762;2023-02-10T02:54:26;3.40;99.90
19966;DHT22;10144;50.874;4.762;2023-02-10T02:57:24;3.30;99.90
19966;DHT22;10144;50.874;4.762;2023-02-10T02:59:59;3.20;99.90
19966;DHT22;10144;50.874;4.762;2023-02-10T03:02:40;3.10;99.90
19966;DHT22;10144;50.874;4.762;2023-02-10T03:05:23;3.00;99.90
19966;DHT22;10144;50.874;4.762;2023-02-10T03:08:01;3.00;99.90
19966;DHT22;10144;50.874;4.762;2023-02-10T03:13:39;2.90;99.90
19966;DHT22;10144;50.874;4.762;2023-02-10T03:16:05;2.80;99.90
19966;DHT22;10144;50.874;4.762;2023-02-10T03:18:34;2.90;99.90
19966;DHT22;10144;50.874;4.762;2023-02-10T03:21:30;2.80;99.90
19966;DHT22;10144;50.874;4.762;2023-02-10T03:23:59;2.90;99.90
19966;DHT22;10144;50.874;4.762;2023-02-10T03:26:28;2.80;99.90
19966;DHT22;10144;50.874;4.762;2023-02-10T03:28:57;2.80;99.90
19966;DHT22;10144;50.874;4.762;2023-02-10T03:31:26;3.00;99.90
19966;DHT22;10144;50.874;4.762;2023-02-10T03:33:53;3.00;99.90
19966;DHT22;10144;50.874;4.762;2023-02-10T03:36:21;2.90;99.90
19966;DHT22;10144;50.874;4.762;2023-02-10T03:38:53;2.80;99.90
19966;DHT22;10144;50.874;4.762;2023-02-10T03:44:33;3.10;99.90
19966;DHT22;10144;50.874;4.762;2023-02-10T03:47:02;3.10;99.90
19966;DHT22;10144;50.874;4.762;2023-02-10T03:49:31;3.00;99.90
19966;DHT22;10144;50.874;4.762;2023-02-10T03:52:16;2.80;99.90
19966;DHT22;10144;50.874;4.762;2023-02-10T03:54:45;2.70;99.90
19966;DHT22;10144;50.874;4.762;2023-02-10T03:57:11;2.60;99.90
19966;DHT22;10144;50.874;4.762;2023-02-10T03:59:41;2.60;99.90
19966;DHT22;10144;50.874;4.762;2023-02-10T04:02:09;2.50;99.90
19966;DHT22;10144;50.874;4.762;2023-02-10T04:04:38;2.60;99.90
19966;DHT22;10144;50.874;4.762;2023-02-10T04:07:08;2.60;99.90
19966;DHT22;10144;50.874;4.762;2023-02-10T04:09:36;2.60;99.90
19966;DHT22;10144;50.874;4.762;2023-02-10T04:15:59;2.80;99.90
19966;DHT22;10144;50.874;4.762;2023-02-10T04:18:35;2.80;99.90
19966;DHT22;10144;50.874;4.762;2023-02-10T04:21:06;2.80;99.90
19966;DHT22;10144;50.874;4.762;2023-02-10T04:23:47;2.80;99.90
19966;DHT22;10144;50.874;4.762;2023-02-10T04:26:29;2.70;99.90
19966;DHT22;10144;50.874;4.762;2023-02-10T04:28:58;2.60;99.90
19966;DHT22;10144;50.874;4.762;2023-02-10T04:35:01;2.90;99.90
19966;DHT22;10144;50.874;4.762;2023-02-10T04:37:33;3.00;99.90
19966;DHT22;10144;50.874;4.762;2023-02-10T04:39:59;3.00;99.90
19966;DHT22;10144;50.874;4.762;2023-02-10T04:42:25;2.90;99.90
19966;DHT22;10144;50.874;4.762;2023-02-10T04:44:59;2.90;99.90
19966;DHT22;10144;50.874;4.762;2023-02-10T04:47:30;2.80;99.90
19966;DHT22;10144;50.874;4.762;2023-02-10T04:49:58;2.80;99.90
19966;DHT22;10144;50.874;4.762;2023-02-10T04:52:29;2.80;99.90
19966;DHT22;10144;50.874;4.762;2023-02-10T04:58:23;2.70;99.90
19966;DHT22;10144;50.874;4.762;2023-02-10T05:04:15;2.60;99.90
19966;DHT22;10144;50.874;4.762;2023-02-10T05:13:15;2.60;99.90
19966;DHT22;10144;50.874;4.762;2023-02-10T05:15:44;2.50;99.90
19966;DHT22;10144;50.874;4.762;2023-02-10T05:18:12;2.50;99.90
19966;DHT22;10144;50.874;4.762;2023-02-10T05:20:43;2.40;99.90
19966;DHT22;10144;50.874;4.762;2023-02-10T05:23:09;2.40;99.90
19966;DHT22;10144;50.874;4.762;2023-02-10T05:25:34;2.50;99.90
19966;DHT22;10144;50.874;4.762;2023-02-10T05:31:13;2.50;99.90
19966;DHT22;10144;50.874;4.762;2023-02-10T05:33:38;2.50;99.90
19966;DHT22;10144;50.874;4.762;2023-02-10T05:36:04;2.50;99.90
19966;DHT22;10144;50.874;4.762;2023-02-10T05:38:34;2.50;99.90
19966;DHT22;10144;50.874;4.762;2023-02-10T05:41:03;2.50;99.90
19966;DHT22;10144;50.874;4.762;2023-02-10T05:43:30;2.40;99.90
19966;DHT22;10144;50.874;4.762;2023-02-10T05:46:05;2.40;99.90
19966;DHT22;10144;50.874;4.762;2023-02-10T05:48:37;2.40;99.90
19966;DHT22;10144;50.874;4.762;2023-02-10T05:54:42;2.10;99.90
19966;DHT22;10144;50.874;4.762;2023-02-10T05:57:25;2.10;99.90
19966;DHT22;10144;50.874;4.762;2023-02-10T05:59:53;2.00;99.90
19966;DHT22;10144;50.874;4.762;2023-02-10T06:02:18;2.10;99.90
19966;DHT22;10144;50.874;4.762;2023-02-10T06:04:48;2.10;99.90
19966;DHT22;10144;50.874;4.762;2023-02-10T06:07:17;2.10;99.90
19966;DHT22;10144;50.874;4.762;2023-02-10T06:09:44;2.10;99.90
19966;DHT22;10144;50.874;4.762;2023-02-10T06:12:13;2.20;99.90
19966;DHT22;10144;50.874;4.762;2023-02-10T06:14:38;2.40;99.90
19966;DHT22;10144;50.874;4.762;2023-02-10T06:17:07;2.40;99.90
19966;DHT22;10144;50.874;4.762;2023-02-10T06:19:40;2.30;99.90
19966;DHT22;10144;50.874;4.762;2023-02-10T06:22:09;2.30;99.90
19966;DHT22;10144;50.874;4.762;2023-02-10T06:24:38;2.30;99.90
19966;DHT22;10144;50.874;4.762;2023-02-10T06:27:07;2.30;99.90
19966;DHT22;10144;50.874;4.762;2023-02-10T06:29:35;2.30;99.90
19966;DHT22;10144;50.874;4.762;2023-02-10T06:32:24;2.40;99.90
19966;DHT22;10144;50.874;4.762;2023-02-10T06:34:53;2.50;99.90
19966;DHT22;10144;50.874;4.762;2023-02-10T06:37:23;2.40;99.90
19966;DHT22;10144;50.874;4.762;2023-02-10T06:39:52;2.30;99.90
19966;DHT22;10144;50.874;4.762;2023-02-10T06:42:20;2.30;99.90
19966;DHT22;10144;50.874;4.762;2023-02-10T06:44:49;2.30;99.90
19966;DHT22;10144;50.874;4.762;2023-02-10T06:47:18;2.30;99.90
19966;DHT22;10144;50.874;4.762;2023-02-10T06:49:45;2.30;99.90
19966;DHT22;10144;50.874;4.762;2023-02-10T06:55:28;2.20;99.90
19966;DHT22;10144;50.874;4.762;2023-02-10T06:57:58;2.20;99.90
19966;DHT22;10144;50.874;4.762;2023-02-10T07:00:25;2.20;99.90
19966;DHT22;10144;50.874;4.762;2023-02-10T07:02:54;2.30;99.90
19966;DHT22;10144;50.874;4.762;2023-02-10T07:05:33;2.30;99.90
19966;DHT22;10144;50.874;4.762;2023-02-10T07:08:03;2.30;99.90
19966;DHT22;10144;50.874;4.762;2023-02-10T07:10:36;2.30;99.90
19966;DHT22;10144;50.874;4.762;2023-02-10T07:13:03;2.30;99.90
19966;DHT22;10144;50.874;4.762;2023-02-10T07:15:36;2.20;99.90
19966;DHT22;10144;50.874;4.762;2023-02-10T07:18:16;2.30;99.90
19966;DHT22;10144;50.874;4.762;2023-02-10T07:24:16;2.40;99.90
19966;DHT22;10144;50.874;4.762;2023-02-10T07:30:12;2.50;99.90
19966;DHT22;10144;50.874;4.762;2023-02-10T07:36:07;2.60;99.90
19966;DHT22;10144;50.874;4.762;2023-02-10T07:41:55;2.90;99.90
19966;DHT22;10144;50.874;4.762;2023-02-10T07:47:49;3.30;99.90
19966;DHT22;10144;50.874;4.762;2023-02-10T07:53:37;3.70;99.90
19966;DHT22;10144;50.874;4.762;2023-02-10T07:59:26;4.00;99.90
19966;DHT22;10144;50.874;4.762;2023-02-10T08:05:21;4.50;99.90
19966;DHT22;10144;50.874;4.762;2023-02-10T08:10:40;5.40;99.90
19966;DHT22;10144;50.874;4.762;2023-02-10T08:16:29;5.80;99.90
19966;DHT22;10144;50.874;4.762;2023-02-10T08:22:18;5.20;99.90
19966;DHT22;10144;50.874;4.762;2023-02-10T08:28:06;4.70;99.90
19966;DHT22;10144;50.874;4.762;2023-02-10T08:33:54;4.30;99.90
19966;DHT22;10144;50.874;4.762;2023-02-10T09:03:28;7.60;99.90
19966;DHT22;10144;50.874;4.762;2023-02-10T09:12:24;8.00;99.90
19966;DHT22;10144;50.874;4.762;2023-02-10T09:18:13;7.30;99.90
19966;DHT22;10144;50.874;4.762;2023-02-10T10:16:19;5.80;99.90
19966;DHT22;10144;50.874;4.762;2023-02-10T10:33:45;7.90;99.90
19966;DHT22;10144;50.874;4.762;2023-02-10T10:46:55;7.40;99.90
19966;DHT22;10144;50.874;4.762;2023-02-10T10:52:53;7.10;99.90
19966;DHT22;10144;50.874;4.762;2023-02-10T10:58:44;7.10;99.90
19966;DHT22;10144;50.874;4.762;2023-02-10T11:04:34;7.20;99.90
19966;DHT22;10144;50.874;4.762;2023-02-10T11:10:46;9.30;99.90
19966;DHT22;10144;50.874;4.762;2023-02-10T12:17:29;16.10;99.90
19966;DHT22;10144;50.874;4.762;2023-02-10T12:23:48;17.20;99.90
19966;DHT22;10144;50.874;4.762;2023-02-10T13:01:42;21.20;99.90
19966;DHT22;10144;50.874;4.762;2023-02-10T13:11:07;16.50;99.90
19966;DHT22;10144;50.874;4.762;2023-02-10T13:16:58;15.90;99.90
19966;DHT22;10144;50.874;4.762;2023-02-10T13:34:50;12.40;99.90
19966;DHT22;10144;50.874;4.762;2023-02-10T13:40:48;11.70;99.90
19966;DHT22;10144;50.874;4.762;2023-02-10T13:56:34;10.10;99.90
19966;DHT22;10144;50.874;4.762;2023-02-10T14:02:24;10.20;99.90
19966;DHT22;10144;50.874;4.762;2023-02-10T14:33:31;8.80;99.90
19966;DHT22;10144;50.874;4.762;2023-02-10T14:36:00;8.90;99.90
19966;DHT22;10144;50.874;4.762;2023-02-10T14:41:50;9.30;99.90
19966;DHT22;10144;50.874;4.762;2023-02-10T14:47:39;9.40;99.90
19966;DHT22;10144;50.874;4.762;2023-02-10T14:53:35;8.80;99.90
19966;DHT22;10144;50.874;4.762;2023-02-10T14:59:29;9.10;99.90
19966;DHT22;10144;50.874;4.762;2023-02-10T15:05:19;9.30;99.90
19966;DHT22;10144;50.874;4.762;2023-02-10T15:11:12;9.10;99.90
19966;DHT22;10144;50.874;4.762;2023-02-10T15:17:04;9.00;99.90
19966;DHT22;10144;50.874;4.762;2023-02-10T15:28:44;8.70;99.90
19966;DHT22;10144;50.874;4.762;2023-02-10T15:34:33;8.30;99.90
19966;DHT22;10144;50.874;4.762;2023-02-10T15:40:29;8.30;99.90
19966;DHT22;10144;50.874;4.762;2023-02-10T15:53:02;7.80;99.90
19966;DHT22;10144;50.874;4.762;2023-02-10T16:05:09;7.80;99.90
19966;DHT22;10144;50.874;4.762;2023-02-10T16:10:57;7.70;99.90
19966;DHT22;10144;50.874;4.762;2023-02-10T16:16:48;7.80;99.90
19966;DHT22;10144;50.874;4.762;2023-02-10T16:26:01;7.80;99.90
19966;DHT22;10144;50.874;4.762;2023-02-10T16:31:49;7.50;99.90
19966;DHT22;10144;50.874;4.762;2023-02-10T16:34:43;7.40;99.90
19966;DHT22;10144;50.874;4.762;2023-02-10T16:37:18;7.20;99.90
19966;DHT22;10144;50.874;4.762;2023-02-10T16:43:09;7.20;99.90
19966;DHT22;10144;50.874;4.762;2023-02-10T16:45:37;7.20;99.90
19966;DHT22;10144;50.874;4.762;2023-02-10T16:48:03;7.20;99.90
19966;DHT22;10144;50.874;4.762;2023-02-10T16:50:36;7.10;99.90
19966;DHT22;10144;50.874;4.762;2023-02-10T16:53:06;7.00;99.90
19966;DHT22;10144;50.874;4.762;2023-02-10T16:55:44;6.80;99.90
19966;DHT22;10144;50.874;4.762;2023-02-10T16:58:15;6.90;99.90
19966;DHT22;10144;50.874;4.762;2023-02-10T17:00:42;6.90;99.90
19966;DHT22;10144;50.874;4.762;2023-02-10T17:03:09;7.00;99.90
19966;DHT22;10144;50.874;4.762;2023-02-10T17:05:35;7.00;99.90
19966;DHT22;10144;50.874;4.762;2023-02-10T17:08:13;6.70;99.90
19966;DHT22;10144;50.874;4.762;2023-02-10T17:10:39;6.80;99.90
19966;DHT22;10144;50.874;4.762;2023-02-10T17:13:07;6.90;99.90
19966;DHT22;10144;50.874;4.762;2023-02-10T17:15:51;6.90;99.90
19966;DHT22;10144;50.874;4.762;2023-02-10T17:18:23;7.00;99.90
19966;DHT22;10144;50.874;4.762;2023-02-10T17:21:01;6.70;99.90
19966;DHT22;10144;50.874;4.762;2023-02-10T17:23:46;6.50;99.90
19966;DHT22;10144;50.874;4.762;2023-02-10T17:26:25;6.90;99.90
19966;DHT22;10144;50.874;4.762;2023-02-10T17:31:45;7.10;99.90
19966;DHT22;10144;50.874;4.762;2023-02-10T17:37:33;7.00;99.90
19966;DHT22;10144;50.874;4.762;2023-02-10T17:43:20;6.90;99.90
19966;DHT22;10144;50.874;4.762;2023-02-10T17:55:48;6.60;99.90
19966;DHT22;10144;50.874;4.762;2023-02-10T18:01:39;6.60;99.90
19966;DHT22;10144;50.874;4.762;2023-02-10T18:04:43;6.60;99.90
19966;DHT22;10144;50.874;4.762;2023-02-10T18:07:34;6.60;99.90
19966;DHT22;10144;50.874;4.762;2023-02-10T18:10:04;6.70;99.90
19966;DHT22;10144;50.874;4.762;2023-02-10T18:16:19;6.80;99.90
19966;DHT22;10144;50.874;4.762;2023-02-10T18:25:29;6.70;99.90
19966;DHT22;10144;50.874;4.762;2023-02-10T18:34:10;6.60;99.90
19966;DHT22;10144;50.874;4.762;2023-02-10T18:39:58;6.70;99.90
19966;DHT22;10144;50.874;4.762;2023-02-10T18:42:45;6.70;99.90
19966;DHT22;10144;50.874;4.762;2023-02-10T18:45:41;6.70;99.90
19966;DHT22;10144;50.874;4.762;2023-02-10T18:51:31;6.80;99.90
19966;DHT22;10144;50.874;4.762;2023-02-10T19:00:48;6.90;99.90
19966;DHT22;10144;50.874;4.762;2023-02-10T19:03:22;7.00;99.90
19966;DHT22;10144;50.874;4.762;2023-02-10T19:05:54;7.10;99.90
19966;DHT22;10144;50.874;4.762;2023-02-10T19:08:29;7.00;99.90
19966;DHT22;10144;50.874;4.762;2023-02-10T19:11:01;6.90;99.90
19966;DHT22;10144;50.874;4.762;2023-02-10T19:13:35;6.90;99.90
19966;DHT22;10144;50.874;4.762;2023-02-10T19:16:19;7.10;99.90
19966;DHT22;10144;50.874;4.762;2023-02-10T19:18:53;7.10;99.90
19966;DHT22;10144;50.874;4.762;2023-02-10T19:21:22;7.00;99.90
19966;DHT22;10144;50.874;4.762;2023-02-10T19:23:49;7.10;99.90
19966;DHT22;10144;50.874;4.762;2023-02-10T19:29:36;7.00;99.90
19966;DHT22;10144;50.874;4.762;2023-02-10T19:32:08;7.10;99.90
19966;DHT22;10144;50.874;4.762;2023-02-10T19:41:23;7.20;99.90
19966;DHT22;10144;50.874;4.762;2023-02-10T19:43:59;7.20;99.90
19966;DHT22;10144;50.874;4.762;2023-02-10T19:46:38;7.20;99.90
19966;DHT22;10144;50.874;4.762;2023-02-10T19:49:05;7.20;99.90
19966;DHT22;10144;50.874;4.762;2023-02-10T19:51:40;7.30;99.90
19966;DHT22;10144;50.874;4.762;2023-02-10T19:54:16;7.20;99.90
19966;DHT22;10144;50.874;4.762;2023-02-10T19:56:49;7.20;99.90
19966;DHT22;10144;50.874;4.762;2023-02-10T19:59:30;7.30;99.90
19966;DHT22;10144;50.874;4.762;2023-02-10T20:01:55;7.20;99.90
19966;DHT22;10144;50.874;4.762;2023-02-10T20:04:26;7.20;99.90
19966;DHT22;10144;50.874;4.762;2023-02-10T20:06:55;7.10;99.90
19966;DHT22;10144;50.874;4.762;2023-02-10T20:09:26;7.20;99.90
19966;DHT22;10144;50.874;4.762;2023-02-10T20:11:52;7.20;99.90
19966;DHT22;10144;50.874;4.762;2023-02-10T20:14:20;7.20;99.90
19966;DHT22;10144;50.874;4.762;2023-02-10T20:16:46;7.30;99.90
19966;DHT22;10144;50.874;4.762;2023-02-10T20:19:21;7.30;99.90
19966;DHT22;10144;50.874;4.762;2023-02-10T20:21:49;7.20;99.90
19966;DHT22;10144;50.874;4.762;2023-02-10T20:24:15;7.00;99.90
19966;DHT22;10144;50.874;4.762;2023-02-10T20:26:43;7.00;99.90
19966;DHT22;10144;50.874;4.762;2023-02-10T20:29:11;6.90;99.90
19966;DHT22;10144;50.874;4.762;2023-02-10T20:31:51;7.00;99.90
19966;DHT22;10144;50.874;4.762;2023-02-10T20:34:18;7.00;99.90
19966;DHT22;10144;50.874;4.762;2023-02-10T20:36:45;7.00;99.90
19966;DHT22;10144;50.874;4.762;2023-02-10T20:39:11;6.90;99.90
19966;DHT22;10144;50.874;4.762;2023-02-10T20:41:40;6.90;99.90
19966;DHT22;10144;50.874;4.762;2023-02-10T20:44:06;7.00;99.90
19966;DHT22;10144;50.874;4.762;2023-02-10T20:46:32;6.90;99.90
19966;DHT22;10144;50.874;4.762;2023-02-10T20:49:03;6.90;99.90
19966;DHT22;10144;50.874;4.762;2023-02-10T20:51:34;7.00;99.90
19966;DHT22;10144;50.874;4.762;2023-02-10T20:54:01;7.00;99.90
19966;DHT22;10144;50.874;4.762;2023-02-10T20:56:40;7.10;99.90
19966;DHT22;10144;50.874;4.762;2023-02-10T20:59:11;7.10;99.90
19966;DHT22;10144;50.874;4.762;2023-02-10T21:01:40;6.90;99.90
19966;DHT22;10144;50.874;4.762;2023-02-10T21:04:07;6.80;99.90
19966;DHT22;10144;50.874;4.762;2023-02-10T21:06:40;6.90;99.90
19966;DHT22;10144;50.874;4.762;2023-02-10T21:09:17;7.00;99.90
19966;DHT22;10144;50.874;4.762;2023-02-10T21:11:44;6.90;99.90
19966;DHT22;10144;50.874;4.762;2023-02-10T21:14:09;6.90;99.90
19966;DHT22;10144;50.874;4.762;2023-02-10T21:16:36;6.90;99.90
19966;DHT22;10144;50.874;4.762;2023-02-10T21:19:19;7.00;99.90
19966;DHT22;10144;50.874;4.762;2023-02-10T21:21:46;7.00;99.90
19966;DHT22;10144;50.874;4.762;2023-02-10T21:24:14;6.90;99.90
19966;DHT22;10144;50.874;4.762;2023-02-10T21:26:43;7.10;99.90
19966;DHT22;10144;50.874;4.762;2023-02-10T21:29:24;7.10;99.90
19966;DHT22;10144;50.874;4.762;2023-02-10T21:31:50;7.20;99.90
19966;DHT22;10144;50.874;4.762;2023-02-10T21:34:23;7.10;99.90
19966;DHT22;10144;50.874;4.762;2023-02-10T21:37:04;7.10;99.90
19966;DHT22;10144;50.874;4.762;2023-02-10T21:43:05;6.90;99.90
19966;DHT22;10144;50.874;4.762;2023-02-10T21:46:02;6.90;99.90
19966;DHT22;10144;50.874;4.762;2023-02-10T21:51:50;7.00;99.90
19966;DHT22;10144;50.874;4.762;2023-02-10T21:54:29;7.00;99.90
19966;DHT22;10144;50.874;4.762;2023-02-10T21:57:32;6.90;99.90
19966;DHT22;10144;50.874;4.762;2023-02-10T22:00:31;6.90;99.90
19966;DHT22;10144;50.874;4.762;2023-02-10T22:03:07;7.00;99.90
19966;DHT22;10144;50.874;4.762;2023-02-10T22:05:55;6.80;99.90
19966;DHT22;10144;50.874;4.762;2023-02-10T22:11:44;6.80;99.90
19966;DHT22;10144;50.874;4.762;2023-02-10T22:14:14;6.70;99.90
19966;DHT22;10144;50.874;4.762;2023-02-10T22:16:42;6.90;99.90
19966;DHT22;10144;50.874;4.762;2023-02-10T22:19:13;7.00;99.90
19966;DHT22;10144;50.874;4.762;2023-02-10T22:28:39;7.10;99.90
19966;DHT22;10144;50.874;4.762;2023-02-10T22:31:21;7.00;99.90
19966;DHT22;10144;50.874;4.762;2023-02-10T22:33:56;6.90;99.90
19966;DHT22;10144;50.874;4.762;2023-02-10T22:36:23;6.80;99.90
19966;DHT22;10144;50.874;4.762;2023-02-10T22:39:01;6.80;99.90
19966;DHT22;10144;50.874;4.762;2023-02-10T22:41:30;6.80;99.90
19966;DHT22;10144;50.874;4.762;2023-02-10T22:44:33;6.80;99.90
19966;DHT22;10144;50.874;4.762;2023-02-10T22:47:07;6.70;99.90
19966;DHT22;10144;50.874;4.762;2023-02-10T22:49:37;6.70;99.90
19966;DHT22;10144;50.874;4.762;2023-02-10T22:52:09;6.70;99.90
19966;DHT22;10144;50.874;4.762;2023-02-10T22:54:38;6.70;99.90
19966;DHT22;10144;50.874;4.762;2023-02-10T22:57:06;6.70;99.90
19966;DHT22;10144;50.874;4.762;2023-02-10T22:59:34;6.70;99.90
19966;DHT22;10144;50.874;4.762;2023-02-10T23:02:13;6.80;99.90
19966;DHT22;10144;50.874;4.762;2023-02-10T23:05:02;6.80;99.90
19966;DHT22;10144;50.874;4.762;2023-02-10T23:07:28;6.70;99.90
19966;DHT22;10144;50.874;4.762;2023-02-10T23:10:10;6.70;99.90
19966;DHT22;10144;50.874;4.762;2023-02-10T23:12:38;6.70;99.90
19966;DHT22;10144;50.874;4.762;2023-02-10T23:15:16;6.70;99.90
19966;DHT22;10144;50.874;4.762;2023-02-10T23:17:44;6.80;99.90
19966;DHT22;10144;50.874;4.762;2023-02-10T23:20:13;6.80;99.90
19966;DHT22;10144;50.874;4.762;2023-02-10T23:22:45;6.80;99.90
19966;DHT22;10144;50.874;4.762;2023-02-10T23:25:13;6.70;99.90
19966;DHT22;10144;50.874;4.762;2023-02-10T23:27:44;6.70;99.90
19966;DHT22;10144;50.874;4.762;2023-02-10T23:30:44;6.60;99.90
19966;DHT22;10144;50.874;4.762;2023-02-10T23:33:12;6.60;99.90
19966;DHT22;10144;50.874;4.762;2023-02-10T23:35:42;6.60;99.90
19966;DHT22;10144;50.874;4.762;2023-02-10T23:38:24;6.50;99.90
19966;DHT22;10144;50.874;4.762;2023-02-10T23:41:01;6.70;99.90
19966;DHT22;10144;50.874;4.762;2023-02-10T23:46:51;6.70;99.90
19966;DHT22;10144;50.874;4.762;2023-02-10T23:49:24;6.70;99.90
19966;DHT22;10144;50.874;4.762;2023-02-10T23:51:49;6.60;99.90
19966;DHT22;10144;50.874;4.762;2023-02-10T23:54:29;6.60;99.90
19966;DHT22;10144;50.874;4.762;2023-02-10T23:57:23;6.60;99.90
